Time;durP1;ratioP1;P1;durP2;ratioP2;P2;SDS_P1;SDS_P2;PMS_P1;PMS_P2;Temp;Humidity;BMP_temperature;BMP_pressure;BME280_temperature;BME280_humidity;BME280_pressure;Samples;Min_cycle;Max_cycle;Signal;HPM_P1;HPM_P2
2024/01/03 00:00:16;;;;;;;10.93;0.60;;;;;;;;;;5078476;27;20091;-83
2024/01/03 00:02:46;;;;;;;6.25;0.70;;;7.40;99.90;;;;;;5083681;27;20035;-83
2024/01/03 00:05:13;;;;;;;7.53;0.40;;;;;;;;;;5081327;27;20039;-84
2024/01/03 00:07:39;;;;;;;11.50;0.80;;;;;;;;;;5097957;27;20048;-82
2024/01/03 00:10:22;;;;;;;6.00;0.68;;;;;;;;;;5078800;27;20850;-83
2024/01/03 00:12:48;;;;;;;8.45;0.55;;;;;;;;;;5080452;27;20755;-83
2024/01/03 00:15:33;;;;;;;18.38;1.95;;;7.40;99.90;;;;;;5085079;27;20080;-82
2024/01/03 00:17:59;;;;;;;11.80;0.75;;;;;;;;;;5083849;28;20807;-81
2024/01/03 00:20:25;;;;;;;7.35;0.50;;;;;;;;;;5088138;27;20043;-83
2024/01/03 00:22:54;;;;;;;10.35;0.65;;;7.20;99.90;;;;;;5087914;27;20031;-83
2024/01/03 00:25:26;;;;;;;12.82;1.58;;;10.50;99.90;;;;;;5080776;27;20281;-83
2024/01/03 00:27:54;;;;;;;14.00;1.23;;;;;;;;;;5080615;27;20514;-83
2024/01/03 00:30:20;;;;;;;10.18;0.63;;;;;;;;;;5085644;27;20066;-82
2024/01/03 00:32:49;;;;;;;8.65;0.90;;;;;;;;;;5083981;27;20042;-84
2024/01/03 00:35:16;;;;;;;14.90;0.80;;;7.40;99.90;;;;;;5097723;27;20092;-83
2024/01/03 00:37:43;;;;;;;10.57;0.95;;;;;;;;;;5077471;27;20047;-85
2024/01/03 00:40:41;;;;;;;7.78;0.55;;;7.20;99.90;;;;;;5082948;27;20116;-87
2024/01/03 00:43:07;;;;;;;10.02;1.40;;;;;;;;;;5088311;27;20051;-83
2024/01/03 00:45:34;;;;;;;9.98;0.80;;;;;;;;;;5082252;28;20096;-82
2024/01/03 00:48:00;;;;;;;7.68;0.52;;;;;;;;;;5077125;27;20034;-82
2024/01/03 00:50:26;;;;;;;9.25;0.63;;;;;;;;;;5082706;27;20061;-84
2024/01/03 00:52:52;;;;;;;10.10;0.65;;;;;;;;;;5095289;27;20854;-83
2024/01/03 00:55:18;;;;;;;8.38;0.88;;;;;;;;;;5080641;27;20078;-84
2024/01/03 00:57:44;;;;;;;11.88;1.10;;;;;;;;;;5076401;27;20084;-83
2024/01/03 01:00:11;;;;;;;8.68;0.63;;;;;;;;;;5075621;27;20067;-83
2024/01/03 01:02:37;;;;;;;2.20;0.20;;;;;;;;;;5102590;27;20047;-83
2024/01/03 01:05:03;;;;;;;9.55;0.80;;;;;;;;;;5079378;27;20122;-85
2024/01/03 01:07:30;;;;;;;14.90;1.13;;;;;;;;;;5079552;27;20042;-83
2024/01/03 01:09:56;;;;;;;9.93;2.10;;;;;;;;;;5099831;27;20050;-82
2024/01/03 01:12:23;;;;;;;12.10;1.33;;;;;;;;;;5077689;27;20043;-82
2024/01/03 01:14:49;;;;;;;10.93;1.10;;;;;;;;;;5100415;27;20484;-83
2024/01/03 01:17:15;;;;;;;11.85;1.20;;;;;;;;;;5095624;27;20095;-85
2024/01/03 01:19:41;;;;;;;9.00;0.52;;;;;;;;;;5082298;27;20403;-86
2024/01/03 01:22:07;;;;;;;9.68;1.02;;;;;;;;;;5081848;27;20986;-88
2024/01/03 01:24:33;;;;;;;11.75;1.08;;;;;;;;;;5087068;27;20046;-85
2024/01/03 01:27:00;;;;;;;12.30;1.20;;;;;;;;;;5081410;27;20031;-84
2024/01/03 01:29:26;;;;;;;9.75;0.77;;;;;;;;;;5099656;27;20051;-83
2024/01/03 01:31:52;;;;;;;7.45;1.00;;;;;;;;;;5097675;27;20481;-84
2024/01/03 01:34:18;;;;;;;12.95;0.85;;;;;;;;;;5098057;27;20047;-83
2024/01/03 01:36:45;;;;;;;4.95;0.40;;;;;;;;;;5087692;28;20069;-86
2024/01/03 01:39:11;;;;;;;5.97;0.90;;;;;;;;;;5078269;28;20052;-84
2024/01/03 01:41:38;;;;;;;8.18;0.63;;;;;;;;;;5086219;27;20034;-84
2024/01/03 01:44:05;;;;;;;6.93;0.68;;;;;;;;;;5090806;27;20531;-83
2024/01/03 01:46:31;;;;;;;13.73;0.40;;;;;;;;;;5099158;27;20047;-83
2024/01/03 01:48:57;;;;;;;11.07;0.85;;;;;;;;;;5079213;27;20074;-86
2024/01/03 01:51:23;;;;;;;7.63;0.95;;;;;;;;;;5101714;27;20053;-88
2024/01/03 01:53:50;;;;;;;8.00;0.45;;;;;;;;;;5078383;27;20367;-84
2024/01/03 01:56:19;;;;;;;11.18;0.63;;;7.10;99.90;;;;;;5076855;27;20065;-84
2024/01/03 01:58:45;;;;;;;8.40;0.60;;;;;;;;;;5084521;27;20042;-83
2024/01/03 02:01:11;;;;;;;6.78;0.93;;;;;;;;;;5081789;27;20036;-84
2024/01/03 02:03:37;;;;;;;10.85;0.95;;;;;;;;;;5100022;27;20539;-82
2024/01/03 02:06:08;;;;;;;11.80;1.58;;;7.10;99.90;;;;;;5080333;28;20538;-85
2024/01/03 02:08:35;;;;;;;13.98;0.80;;;;;;;;;;5089151;27;20046;-82
2024/01/03 02:11:03;;;;;;;7.28;0.60;;;7.20;99.90;;;;;;5106281;27;20069;-84
2024/01/03 02:13:29;;;;;;;6.93;0.60;;;;;;;;;;5111322;27;20117;-84
2024/01/03 02:15:55;;;;;;;6.18;0.40;;;;;;;;;;5126071;27;20122;-82
2024/01/03 02:18:22;;;;;;;15.55;0.60;;;;;;;;;;5125511;27;20053;-84
2024/01/03 02:20:48;;;;;;;12.18;0.88;;;;;;;;;;5091683;27;20062;-84
2024/01/03 02:23:14;;;;;;;5.25;0.75;;;;;;;;;;5089251;27;20039;-85
2024/01/03 02:25:41;;;;;;;8.00;0.65;;;;;;;;;;5091109;27;20571;-83
2024/01/03 02:28:10;;;;;;;13.63;0.70;;;7.20;99.90;;;;;;5109033;27;20134;-81
2024/01/03 02:30:41;;;;;;;5.95;0.43;;;;;;;;;;5094458;27;20046;-84
2024/01/03 02:33:07;;;;;;;5.07;0.40;;;;;;;;;;5113569;27;20051;-81
2024/01/03 02:35:34;;;;;;;4.85;0.77;;;;;;;;;;5108223;27;20046;-82
2024/01/03 02:38:00;;;;;;;5.38;0.20;;;;;;;;;;5107908;27;20042;-82
2024/01/03 02:40:26;;;;;;;5.53;0.60;;;;;;;;;;5102081;27;20112;-85
2024/01/03 02:42:52;;;;;;;4.43;0.30;;;;;;;;;;5088553;27;20039;-82
2024/01/03 02:45:18;;;;;;;4.40;0.68;;;;;;;;;;5117657;27;20038;-81
2024/01/03 02:47:44;;;;;;;2.53;0.47;;;7.10;99.90;;;;;;5090555;27;20046;-82
2024/01/03 02:50:10;;;;;;;4.07;0.50;;;;;;;;;;5092472;27;20046;-81
2024/01/03 02:52:37;;;;;;;1.33;0.20;;;;;;;;;;5108764;27;20034;-84
2024/01/03 02:55:03;;;;;;;6.00;0.73;;;;;;;;;;5103366;27;20061;-84
2024/01/03 02:57:29;;;;;;;3.42;0.47;;;;;;;;;;5100472;27;20392;-84
2024/01/03 02:59:55;;;;;;;2.38;0.17;;;;;;;;;;5108599;27;20038;-82
2024/01/03 03:02:21;;;;;;;1.15;0.20;;;;;;;;;;5125554;27;20035;-83
2024/01/03 03:04:47;;;;;;;6.57;0.30;;;;;;;;;;5125401;27;20068;-85
2024/01/03 03:07:14;;;;;;;5.68;0.40;;;;;;;;;;5089055;27;20043;-81
2024/01/03 03:09:40;;;;;;;2.28;0.10;;;;;;;;;;5095266;27;20050;-84
2024/01/03 03:12:06;;;;;;;4.55;0.28;;;7.50;99.90;;;;;;5126105;27;20045;-84
2024/01/03 03:14:32;;;;;;;2.60;0.60;;;;;;;;;;5108940;27;20392;-81
2024/01/03 03:16:58;;;;;;;3.72;0.32;;;;;;;;;;5114543;27;20057;-84
2024/01/03 03:19:25;;;;;;;1.58;0.65;;;;;;;;;;5116056;27;20042;-82
2024/01/03 03:21:51;;;;;;;5.65;0.98;;;;;;;;;;5124821;27;20041;-84
2024/01/03 03:24:17;;;;;;;2.15;0.47;;;;;;;;;;5107912;27;20039;-82
2024/01/03 03:26:43;;;;;;;3.13;0.22;;;;;;;;;;5118106;27;20031;-82
2024/01/03 03:29:09;;;;;;;2.10;0.60;;;;;;;;;;5088108;27;20092;-84
2024/01/03 03:31:38;;;;;;;4.45;0.45;;;7.70;99.90;;;;;;5105631;27;20039;-83
2024/01/03 03:34:04;;;;;;;4.20;0.25;;;;;;;;;;5120537;27;20456;-86
2024/01/03 03:36:30;;;;;;;4.43;0.15;;;;;;;;;;5102689;28;20043;-84
2024/01/03 03:38:56;;;;;;;4.97;0.30;;;;;;;;;;5089550;28;20396;-85
2024/01/03 03:41:23;;;;;;;4.18;0.35;;;;;;;;;;5100895;27;20054;-84
2024/01/03 03:43:49;;;;;;;2.00;0.20;;;;;;;;;;5109220;27;20702;-83
2024/01/03 03:46:17;;;;;;;0.85;0.10;;;7.70;99.90;;;;;;5091307;28;20050;-86
2024/01/03 03:48:43;;;;;;;2.38;0.22;;;;;;;;;;5091854;28;20130;-83
2024/01/03 03:51:09;;;;;;;2.42;0.25;;;;;;;;;;5104860;27;20786;-85
2024/01/03 03:53:35;;;;;;;2.28;0.30;;;;;;;;;;5105057;27;20099;-83
2024/01/03 03:56:01;;;;;;;1.42;0.20;;;;;;;;;;5089938;27;20039;-84
2024/01/03 03:58:28;;;;;;;2.25;0.50;;;;;;;;;;5124287;27;20052;-83
2024/01/03 04:00:54;;;;;;;2.53;0.20;;;;;;;;;;5091800;27;20038;-82
2024/01/03 04:03:20;;;;;;;1.25;0.10;;;;;;;;;;5107377;27;20042;-83
2024/01/03 04:05:46;;;;;;;0.95;0.10;;;;;;;;;;5080836;28;20062;-85
2024/01/03 04:08:12;;;;;;;2.20;0.20;;;;;;;;;;5111367;28;20050;-84
2024/01/03 04:10:38;;;;;;;2.97;0.15;;;;;;;;;;5087852;28;20406;-83
2024/01/03 04:13:05;;;;;;;1.45;0.10;;;;;;;;;;5091032;28;20414;-83
2024/01/03 04:15:31;;;;;;;1.58;0.10;;;;;;;;;;5102005;28;20047;-83
2024/01/03 04:17:57;;;;;;;2.83;0.20;;;;;;;;;;5086734;27;20624;-82
2024/01/03 04:20:23;;;;;;;1.40;0.28;;;;;;;;;;5092725;27;20051;-84
2024/01/03 04:22:49;;;;;;;3.05;0.20;;;;;;;;;;5098937;27;20616;-82
2024/01/03 04:25:16;;;;;;;3.92;0.30;;;;;;;;;;5095162;27;20057;-83
2024/01/03 04:27:43;;;;;;;4.30;0.75;;;;;;;;;;5118745;27;20050;-84
2024/01/03 04:30:09;;;;;;;1.75;0.20;;;;;;;;;;5106923;27;20831;-83
2024/01/03 04:32:35;;;;;;;5.97;0.20;;;;;;;;;;5124655;27;20592;-84
2024/01/03 04:35:01;;;;;;;4.78;0.30;;;;;;;;;;5104704;27;20042;-82
2024/01/03 04:37:28;;;;;;;8.85;1.23;;;;;;;;;;5110356;27;20046;-83
2024/01/03 04:39:54;;;;;;;7.93;1.02;;;7.60;99.90;;;;;;5116625;27;20051;-85
2024/01/03 04:42:20;;;;;;;15.68;1.85;;;8.10;99.90;;;;;;5098443;27;20046;-83
2024/01/03 04:44:46;;;;;;;11.50;2.60;;;;;;;;;;5108299;27;20066;-84
2024/01/03 04:47:12;;;;;;;12.18;1.60;;;;;;;;;;5111439;27;20046;-83
2024/01/03 04:49:38;;;;;;;17.05;2.83;;;;;;;;;;5110942;27;20054;-84
2024/01/03 04:52:05;;;;;;;13.77;2.45;;;7.90;99.90;;;;;;5111352;27;20112;-83
2024/01/03 04:54:31;;;;;;;28.88;1.88;;;;;;;;;;5110866;27;20042;-84
2024/01/03 04:56:57;;;;;;;23.15;2.03;;;;;;;;;;5113828;27;20585;-85
2024/01/03 04:59:23;;;;;;;21.58;3.25;;;;;;;;;;5104229;27;20039;-85
2024/01/03 05:01:49;;;;;;;12.73;1.42;;;;;;;;;;5110562;27;20083;-83
2024/01/03 05:04:15;;;;;;;33.88;3.58;;;;;;;;;;5091440;27;20039;-83
2024/01/03 05:06:42;;;;;;;27.98;2.10;;;;;;;;;;5096008;27;20045;-85
2024/01/03 05:09:08;;;;;;;22.08;2.03;;;;;;;;;;5106221;27;20050;-85
2024/01/03 05:11:34;;;;;;;16.27;2.25;;;;;;;;;;5101632;27;20399;-83
2024/01/03 05:14:00;;;;;;;25.45;1.73;;;;;;;;;;5130036;27;20039;-84
2024/01/03 05:16:27;;;;;;;17.90;2.58;;;;;;;;;;5098948;27;20181;-83
2024/01/03 05:18:53;;;;;;;22.40;3.92;;;;;;;;;;5128675;27;20039;-85
2024/01/03 05:21:19;;;;;;;13.38;1.88;;;;;;;;;;5109695;27;20089;-84
2024/01/03 05:23:45;;;;;;;27.55;3.92;;;;;;;;;;5096560;27;20039;-83
2024/01/03 05:26:13;;;;;;;18.00;1.92;;;;;;;;;;5107070;27;20039;-82
2024/01/03 05:28:39;;;;;;;20.55;2.58;;;;;;;;;;5089227;27;20055;-82
2024/01/03 05:31:05;;;;;;;14.60;1.98;;;;;;;;;;5097232;27;20051;-85
2024/01/03 05:33:32;;;;;;;30.40;2.28;;;;;;;;;;5107457;27;20043;-82
2024/01/03 05:35:58;;;;;;;11.60;1.40;;;;;;;;;;5116761;27;20039;-85
2024/01/03 05:38:24;;;;;;;22.98;2.85;;;8.30;99.90;;;;;;5106578;27;20043;-82
2024/01/03 05:40:50;;;;;;;25.42;3.78;;;;;;;;;;5090829;27;20521;-82
2024/01/03 05:43:17;;;;;;;19.60;2.20;;;;;;;;;;5090547;27;20606;-83
2024/01/03 05:45:43;;;;;;;9.55;0.95;;;;;;;;;;5106858;27;20496;-84
2024/01/03 05:48:09;;;;;;;19.00;1.88;;;;;;;;;;5097588;27;20042;-81
2024/01/03 05:50:35;;;;;;;11.80;1.88;;;;;;;;;;5115289;27;20049;-83
2024/01/03 05:53:02;;;;;;;12.07;0.95;;;;;;;;;;5111017;27;20755;-83
2024/01/03 05:55:28;;;;;;;14.18;1.05;;;;;;;;;;5109035;27;20046;-84
2024/01/03 05:57:55;;;;;;;10.23;1.75;;;;;;;;;;5118516;27;20051;-83
2024/01/03 06:00:21;;;;;;;9.63;1.02;;;;;;;;;;5112250;27;20322;-83
2024/01/03 06:02:47;;;;;;;13.32;1.15;;;;;;;;;;5091931;27;20074;-84
2024/01/03 06:05:16;;;;;;;12.70;1.48;;;;;;;;;;5111573;27;20060;-82
2024/01/03 06:07:44;;;;;;;18.42;1.42;;;8.50;99.90;;;;;;5109089;27;20042;-82
2024/01/03 06:10:10;;;;;;;13.55;1.58;;;;;;;;;;5104784;27;20043;-83
2024/01/03 06:12:36;;;;;;;17.35;2.20;;;;;;;;;;5106296;27;20041;-82
2024/01/03 06:15:03;;;;;;;13.43;1.42;;;;;;;;;;5091749;27;20068;-83
2024/01/03 06:17:29;;;;;;;12.85;2.20;;;;;;;;;;5108727;27;20038;-82
2024/01/03 06:19:55;;;;;;;13.13;2.55;;;;;;;;;;5108270;27;20043;-82
2024/01/03 06:22:21;;;;;;;11.95;1.85;;;;;;;;;;5125693;27;20034;-83
2024/01/03 06:24:48;;;;;;;12.05;2.08;;;;;;;;;;5125798;27;20030;-83
2024/01/03 06:27:14;;;;;;;12.70;1.83;;;;;;;;;;5112414;27;20658;-82
2024/01/03 06:29:41;;;;;;;22.92;1.45;;;;;;;;;;5108319;27;20137;-85
2024/01/03 06:32:08;;;;;;;17.20;2.25;;;;;;;;;;5108370;27;20043;-82
2024/01/03 06:34:34;;;;;;;17.83;2.17;;;;;;;;;;5104208;27;20085;-82
2024/01/03 06:37:00;;;;;;;8.20;0.73;;;;;;;;;;5089090;27;20073;-84
2024/01/03 06:39:26;;;;;;;11.40;1.23;;;8.60;99.90;;;;;;5109497;27;20043;-83
2024/01/03 06:41:52;;;;;;;10.07;1.00;;;8.60;99.90;;;;;;5108532;27;20050;-82
2024/01/03 06:44:18;;;;;;;7.07;0.68;;;;;;;;;;5093079;27;20098;-84
2024/01/03 06:46:44;;;;;;;5.45;0.63;;;;;;;;;;5104019;27;20600;-85
2024/01/03 06:49:10;;;;;;;7.80;1.42;;;;;;;;;;5125698;27;20121;-84
2024/01/03 06:51:36;;;;;;;8.93;1.50;;;;;;;;;;5094451;27;20196;-82
2024/01/03 06:54:03;;;;;;;5.50;0.55;;;;;;;;;;5108291;27;20089;-82
2024/01/03 06:56:29;;;;;;;6.53;0.50;;;;;;;;;;5106895;27;20795;-83
2024/01/03 06:58:58;;;;;;;5.82;0.30;;;8.70;99.90;;;;;;5095644;27;20050;-83
2024/01/03 07:01:24;;;;;;;6.28;0.70;;;;;;;;;;5104545;27;20043;-84
2024/01/03 07:03:50;;;;;;;3.60;0.40;;;;;;;;;;5100327;27;20138;-82
2024/01/03 07:06:16;;;;;;;4.55;0.68;;;;;;;;;;5090421;27;20487;-81
2024/01/03 07:08:42;;;;;;;6.25;0.60;;;;;;;;;;5105444;27;20051;-83
2024/01/03 07:11:10;;;;;;;7.20;1.05;;;8.60;99.90;;;;;;5088531;27;20039;-83
2024/01/03 07:13:36;;;;;;;8.07;1.15;;;;;;;;;;5096075;27;20042;-82
2024/01/03 07:16:02;;;;;;;11.90;0.50;;;;;;;;;;5104291;27;20042;-82
2024/01/03 07:18:28;;;;;;;11.60;0.70;;;;;;;;;;5107975;27;20149;-82
2024/01/03 07:20:54;;;;;;;8.02;1.52;;;;;;;;;;5107764;27;20043;-82
2024/01/03 07:23:20;;;;;;;10.13;1.98;;;8.60;99.90;;;;;;5124703;27;20074;-82
2024/01/03 07:25:46;;;;;;;16.23;1.92;;;;;;;;;;5107595;27;20130;-82
2024/01/03 07:28:13;;;;;;;21.15;1.70;;;;;;;;;;5109766;27;20122;-82
2024/01/03 07:30:39;;;;;;;16.13;2.25;;;;;;;;;;5097175;28;20039;-84
2024/01/03 07:33:05;;;;;;;14.43;1.38;;;;;;;;;;5106451;27;20038;-84
2024/01/03 07:35:31;;;;;;;11.07;1.33;;;;;;;;;;5125475;27;20130;-84
2024/01/03 07:37:58;;;;;;;18.60;1.52;;;;;;;;;;5092148;27;20043;-85
2024/01/03 07:40:24;;;;;;;13.45;2.30;;;;;;;;;;5088952;27;20071;-82
2024/01/03 07:42:50;;;;;;;14.60;1.30;;;;;;;;;;5106034;27;20047;-84
2024/01/03 07:45:16;;;;;;;10.57;1.60;;;;;;;;;;5088530;27;20570;-82
2024/01/03 07:47:42;;;;;;;6.45;1.27;;;;;;;;;;5105245;27;20042;-81
2024/01/03 07:50:09;;;;;;;9.75;2.08;;;;;;;;;;5102389;27;20117;-83
2024/01/03 07:52:36;;;;;;;16.60;1.90;;;;;;;;;;5088639;28;20047;-83
2024/01/03 07:55:02;;;;;;;15.93;1.25;;;;;;;;;;5101606;27;20042;-82
2024/01/03 07:57:28;;;;;;;16.73;1.83;;;;;;;;;;5108037;27;20491;-81
2024/01/03 07:59:54;;;;;;;11.75;2.03;;;;;;;;;;5104552;28;20259;-83
2024/01/03 08:02:20;;;;;;;9.38;2.38;;;8.50;99.90;;;;;;5111944;27;20049;-83
2024/01/03 08:04:46;;;;;;;12.23;0.82;;;;;;;;;;5122302;27;20190;-82
2024/01/03 08:07:12;;;;;;;5.22;0.73;;;;;;;;;;5126686;27;20053;-83
2024/01/03 08:09:38;;;;;;;6.22;0.68;;;;;;;;;;5094346;27;20047;-82
2024/01/03 08:12:10;;;;;;;4.00;0.50;;;8.20;99.90;;;;;;5095158;27;20083;-82
2024/01/03 08:14:36;;;;;;;4.55;0.43;;;8.20;99.90;;;;;;5112576;27;20050;-83
2024/01/03 08:17:03;;;;;;;5.35;0.63;;;8.20;99.90;;;;;;5111958;27;20103;-84
2024/01/03 08:19:29;;;;;;;8.63;1.33;;;;;;;;;;5128758;27;20050;-83
2024/01/03 08:21:55;;;;;;;5.07;0.50;;;;;;;;;;5106947;27;20121;-83
2024/01/03 08:24:22;;;;;;;4.00;0.60;;;;;;;;;;5113345;27;20042;-83
2024/01/03 08:26:49;;;;;;;3.33;0.65;;;;;;;;;;5113514;27;20486;-83
2024/01/03 08:29:15;;;;;;;6.30;0.43;;;;;;;;;;5099436;27;20051;-85
2024/01/03 08:31:41;;;;;;;12.18;1.83;;;;;;;;;;5109268;27;20510;-83
2024/01/03 08:34:07;;;;;;;9.95;1.48;;;;;;;;;;5128065;27;20043;-82
2024/01/03 08:36:45;;;;;;;9.43;0.60;;;8.10;99.90;;;;;;5127694;27;20061;-83
2024/01/03 08:39:11;;;;;;;5.35;0.73;;;;;;;;;;5127277;27;20061;-81
2024/01/03 08:41:37;;;;;;;9.43;0.80;;;;;;;;;;5111115;27;20039;-82
2024/01/03 08:44:07;;;;;;;13.70;0.77;;;;;;;;;;5093287;27;20118;-82
2024/01/03 08:46:34;;;;;;;9.10;1.15;;;;;;;;;;5127692;27;20118;-83
2024/01/03 08:49:02;;;;;;;9.10;0.57;;;8.30;99.90;;;;;;5120977;27;20093;-83
2024/01/03 08:51:28;;;;;;;6.22;1.23;;;;;;;;;;5108727;27;20126;-84
2024/01/03 08:53:55;;;;;;;13.57;2.67;;;;;;;;;;5091857;27;20164;-83
2024/01/03 08:56:21;;;;;;;12.05;1.58;;;;;;;;;;5111236;27;20495;-82
2024/01/03 08:58:47;;;;;;;12.68;0.90;;;8.40;99.90;;;;;;5090888;27;20043;-83
2024/01/03 09:01:20;;;;;;;11.98;0.95;;;8.50;99.90;;;;;;5104375;27;20042;-82
2024/01/03 09:03:47;;;;;;;11.75;0.68;;;;;;;;;;5108228;27;20035;-83
2024/01/03 09:06:14;;;;;;;7.57;0.65;;;8.50;99.90;;;;;;5106862;27;20118;-83
2024/01/03 09:08:40;;;;;;;17.17;1.50;;;;;;;;;;5101059;27;20769;-81
2024/01/03 09:11:13;;;;;;;4.30;0.50;;;8.60;99.90;;;;;;5108495;27;20039;-81
2024/01/03 09:13:40;;;;;;;11.55;1.77;;;;;;;;;;5084534;27;20042;-82
2024/01/03 09:16:07;;;;;;;9.73;2.05;;;8.70;99.90;;;;;;5088957;27;20146;-82
2024/01/03 09:18:33;;;;;;;9.93;0.98;;;;;;;;;;5103960;27;20063;-82
2024/01/03 09:21:02;;;;;;;7.20;0.50;;;8.80;99.90;;;;;;5113232;27;20455;-81
2024/01/03 09:23:28;;;;;;;7.75;1.30;;;;;;;;;;5089910;27;20053;-84
2024/01/03 09:25:55;;;;;;;14.93;1.00;;;9.10;99.90;;;;;;5091058;27;20520;-83
2024/01/03 09:28:26;;;;;;;10.32;1.20;;;8.90;99.90;;;;;;5094539;27;20050;-84
2024/01/03 09:30:52;;;;;;;14.27;1.60;;;;;;;;;;5115852;27;20085;-84
2024/01/03 09:33:18;;;;;;;10.50;2.75;;;;;;;;;;5093672;27;20122;-83
2024/01/03 09:35:44;;;;;;;9.00;0.75;;;;;;;;;;5101764;27;20515;-84
2024/01/03 09:38:11;;;;;;;12.13;0.85;;;;;;;;;;5090508;27;20043;-84
2024/01/03 09:40:37;;;;;;;7.13;1.38;;;;;;;;;;5094083;27;20039;-83
2024/01/03 09:43:03;;;;;;;10.43;1.10;;;;;;;;;;5106462;27;20039;-82
2024/01/03 09:45:30;;;;;;;8.18;1.02;;;9.00;99.90;;;;;;5110421;27;20558;-83
2024/01/03 09:47:57;;;;;;;12.23;0.77;;;;;;;;;;5097160;27;20039;-83
2024/01/03 09:50:23;;;;;;;17.85;1.25;;;;;;;;;;5090390;27;20078;-83
2024/01/03 09:52:49;;;;;;;9.40;1.35;;;;;;;;;;5096790;27;20146;-81
2024/01/03 09:55:15;;;;;;;6.22;0.68;;;;;;;;;;5096799;27;20051;-82
2024/01/03 09:57:42;;;;;;;11.82;0.77;;;;;;;;;;5113201;27;20035;-82
2024/01/03 10:00:08;;;;;;;15.93;1.17;;;8.70;99.90;;;;;;5106904;27;20074;-80
2024/01/03 10:02:37;;;;;;;14.93;2.67;;;9.00;99.90;;;;;;5111559;27;20046;-82
2024/01/03 10:05:06;;;;;;;6.72;0.77;;;9.00;99.90;;;;;;5100621;27;20100;-81
2024/01/03 10:07:34;;;;;;;7.20;1.17;;;9.00;99.90;;;;;;5089619;27;20057;-84
2024/01/03 10:10:00;;;;;;;8.48;0.95;;;;;;;;;;5106816;27;20051;-83
2024/01/03 10:12:32;;;;;;;4.28;0.63;;;9.10;99.90;;;;;;5089599;27;20046;-82
2024/01/03 10:15:17;;;;;;;7.63;0.68;;;9.10;99.90;;;;;;5083229;27;20035;-82
2024/01/03 10:17:45;;;;;;;6.43;1.05;;;9.20;99.90;;;;;;5062635;28;20048;-83
2024/01/03 10:20:29;;;;;;;14.45;1.35;;;9.40;99.90;;;;;;5062550;28;20056;-84
2024/01/03 10:23:12;;;;;;;4.10;0.98;;;9.20;99.90;;;;;;5063149;28;20064;-84
2024/01/03 10:25:43;;;;;;;5.93;0.28;;;9.20;99.90;;;;;;5055749;28;20049;-81
2024/01/03 10:28:15;;;;;;;5.28;0.32;;;9.20;99.90;;;;;;5062520;28;20523;-83
2024/01/03 10:31:07;;;;;;;;;;;9.30;99.90;;;;;;5043857;28;20043;-83
2024/01/03 10:33:33;;;;;;;5.80;1.02;;;;;;;;;;5063539;28;20705;-82
2024/01/03 10:36:10;;;;;;;8.60;0.60;;;9.70;99.90;;;;;;5035069;28;20044;-82
2024/01/03 10:38:36;;;;;;;5.43;0.35;;;9.50;99.90;;;;;;5057621;28;20477;-84
2024/01/03 10:41:03;;;;;;;10.68;1.10;;;;;;;;;;5058758;28;20040;-83
2024/01/03 10:43:30;;;;;;;8.85;1.35;;;9.40;99.90;;;;;;5046388;28;20460;-83
2024/01/03 10:45:57;;;;;;;8.57;0.70;;;;;;;;;;5056377;28;20032;-82
2024/01/03 10:48:23;;;;;;;14.43;0.40;;;;;;;;;;5054590;27;20285;-82
2024/01/03 10:50:49;;;;;;;6.82;1.00;;;;;;;;;;5100713;27;20035;-84
2024/01/03 10:53:19;;;;;;;8.52;0.50;;;9.30;99.90;;;;;;5091930;27;20475;-82
2024/01/03 10:55:46;;;;;;;3.40;0.22;;;;;;;;;;5085379;27;20043;-86
2024/01/03 10:58:19;;;;;;;5.70;0.77;;;9.40;99.90;;;;;;5083632;27;20039;-83
2024/01/03 11:01:12;;;;;;;;;;;9.40;99.90;;;;;;5118390;27;20495;-83
2024/01/03 11:03:45;;;;;;;9.93;0.95;;;9.40;99.90;;;;;;5066819;27;19981;-82
2024/01/03 11:06:26;;;;;;;9.10;0.65;;;9.40;99.90;;;;;;5082115;27;20042;-83
2024/01/03 11:08:54;;;;;;;15.00;2.50;;;9.40;99.90;;;;;;5077931;27;20035;-84
2024/01/03 11:11:31;;;;;;;11.35;1.77;;;9.40;99.90;;;;;;5105067;27;20054;-82
2024/01/03 11:13:58;;;;;;;15.15;1.60;;;9.50;99.90;;;;;;5113782;27;20046;-82
2024/01/03 11:16:40;;;;;;;9.45;1.35;;;9.40;99.90;;;;;;5115464;27;20046;-83
2024/01/03 11:19:08;;;;;;;13.32;1.15;;;9.40;99.90;;;;;;5099193;27;20082;-82
2024/01/03 11:21:37;;;;;;;13.88;1.88;;;;;;;;;;5087945;28;20046;-81
2024/01/03 11:24:09;;;;;;;12.15;1.77;;;9.40;99.90;;;;;;5088796;27;20449;-82
2024/01/03 11:29:41;;;;;;;13.63;0.93;;;9.30;99.90;;;;;;5111931;27;20050;-82
2024/01/03 11:32:14;;;;;;;9.48;1.77;;;9.20;99.90;;;;;;5109061;27;20082;-83
2024/01/03 11:34:45;;;;;;;10.02;1.15;;;9.20;99.90;;;;;;5097636;27;20145;-83
2024/01/03 11:37:11;;;;;;;13.07;2.75;;;;;;;;;;5107955;27;20785;-83
2024/01/03 11:39:46;;;;;;;15.48;1.40;;;9.10;99.90;;;;;;5112203;27;20043;-83
2024/01/03 11:42:28;;;;;;;17.95;2.30;;;9.00;99.90;;;;;;5078885;27;20039;-81
2024/01/03 11:45:11;;;;;;;14.63;1.38;;;9.10;99.90;;;;;;5111599;27;20522;-85
2024/01/03 11:47:44;;;;;;;13.43;2.10;;;9.20;99.90;;;;;;5108509;27;20173;-83
2024/01/03 11:50:12;;;;;;;17.65;2.13;;;9.40;99.90;;;;;;5096384;27;20042;-84
2024/01/03 11:52:46;;;;;;;13.52;1.77;;;9.90;99.90;;;;;;5091732;27;20047;-82
2024/01/03 11:55:13;;;;;;;23.73;3.30;;;9.50;99.90;;;;;;5128121;27;20782;-83
2024/01/03 11:57:41;;;;;;;14.38;2.25;;;9.50;99.90;;;;;;5111873;27;20560;-83
2024/01/03 12:00:09;;;;;;;7.90;1.02;;;9.50;99.90;;;;;;5113210;27;20111;-83
2024/01/03 12:02:35;;;;;;;15.80;1.40;;;;;;;;;;5111046;27;20077;-84
2024/01/03 12:05:04;;;;;;;8.63;0.90;;;9.30;99.90;;;;;;5128708;27;20046;-84
2024/01/03 12:07:51;;;;;;;12.88;1.73;;;9.30;99.90;;;;;;5111525;27;20091;-82
2024/01/03 12:10:17;;;;;;;13.93;1.83;;;9.30;99.90;;;;;;5085564;28;20055;-80
2024/01/03 12:12:44;;;;;;;15.38;2.40;;;9.50;99.90;;;;;;5067033;28;20066;-84
2024/01/03 12:15:24;;;;;;;19.65;3.05;;;9.30;99.90;;;;;;5065656;28;20166;-81
2024/01/03 12:17:51;;;;;;;18.92;2.33;;;;;;;;;;5054784;28;20047;-82
2024/01/03 12:20:19;;;;;;;14.57;2.13;;;9.40;99.90;;;;;;5085033;28;20052;-85
2024/01/03 12:22:45;;;;;;;19.33;2.30;;;;;;;;;;5063735;28;20603;-82
2024/01/03 12:25:39;;;;;;;18.13;1.73;;;9.30;99.90;;;;;;5065920;28;20110;-82
2024/01/03 12:28:05;;;;;;;13.75;1.92;;;9.20;99.90;;;;;;5028607;28;20154;-83
2024/01/03 12:30:31;;;;;;;17.73;2.67;;;;;;;;;;5045245;28;20225;-81
2024/01/03 12:33:08;;;;;;;16.02;2.97;;;9.20;99.90;;;;;;5045452;28;20943;-83
2024/01/03 12:35:34;;;;;;;19.08;2.08;;;;;;;;;;5028582;28;20044;-82
2024/01/03 12:38:00;;;;;;;16.63;1.88;;;;;;;;;;5028620;28;20111;-82
2024/01/03 12:40:27;;;;;;;11.80;2.05;;;;;;;;;;5031555;28;21092;-84
2024/01/03 12:42:53;;;;;;;13.43;2.75;;;;;;;;;;5065499;28;20052;-82
2024/01/03 12:45:19;;;;;;;20.33;2.88;;;;;;;;;;5065287;28;20075;-82
2024/01/03 12:47:45;;;;;;;19.00;2.17;;;;;;;;;;5030641;28;20044;-83
2024/01/03 12:50:11;;;;;;;16.30;1.73;;;;;;;;;;5062150;28;20117;-83
2024/01/03 12:52:37;;;;;;;16.88;1.40;;;;;;;;;;5065799;28;20612;-83
2024/01/03 12:55:04;;;;;;;14.05;1.45;;;9.20;99.90;;;;;;5046316;28;20156;-82
2024/01/03 12:57:31;;;;;;;14.48;1.45;;;;;;;;;;5065574;28;20185;-84
2024/01/03 12:59:58;;;;;;;11.77;1.67;;;;;;;;;;5091525;27;20050;-82
2024/01/03 13:02:24;;;;;;;19.25;2.10;;;;;;;;;;5103265;27;20070;-84
2024/01/03 13:04:50;;;;;;;14.70;2.47;;;;;;;;;;5109938;27;20038;-83
2024/01/03 13:07:17;;;;;;;18.63;2.45;;;;;;;;;;5083620;27;20515;-81
2024/01/03 13:09:43;;;;;;;16.95;3.20;;;;;;;;;;5096471;27;20042;-82
2024/01/03 13:12:09;;;;;;;14.57;2.28;;;;;;;;;;5100276;27;20721;-84
2024/01/03 13:14:35;;;;;;;6.70;0.63;;;9.80;99.90;;;;;;5126872;27;20070;-81
2024/01/03 13:17:01;;;;;;;18.48;1.88;;;;;;;;;;5127005;27;20130;-80
2024/01/03 13:19:28;;;;;;;13.90;1.60;;;;;;;;;;5109162;27;20096;-82
2024/01/03 13:21:54;;;;;;;17.23;2.60;;;;;;;;;;5126417;27;20043;-81
2024/01/03 13:24:21;;;;;;;12.20;1.08;;;;;;;;;;5111302;27;20521;-83
2024/01/03 13:26:47;;;;;;;14.32;1.85;;;;;;;;;;5106870;27;20415;-81
2024/01/03 13:29:13;;;;;;;13.65;2.38;;;;;;;;;;5090314;27;20474;-81
2024/01/03 13:31:40;;;;;;;22.92;1.85;;;;;;;;;;5090020;27;20056;-81
2024/01/03 13:34:06;;;;;;;15.77;1.38;;;;;;;;;;5113035;27;20126;-83
2024/01/03 13:36:32;;;;;;;17.02;2.13;;;;;;;;;;5084238;28;20067;-82
2024/01/03 13:38:58;;;;;;;12.82;1.88;;;;;;;;;;5090218;27;20051;-81
2024/01/03 13:41:24;;;;;;;13.48;0.95;;;;;;;;;;5097896;27;20054;-83
2024/01/03 13:43:52;;;;;;;18.15;2.33;;;;;;;;;;5112002;27;20499;-79
2024/01/03 13:46:18;;;;;;;16.85;1.35;;;;;;;;;;5116685;27;20525;-82
2024/01/03 13:48:44;;;;;;;15.80;1.85;;;;;;;;;;5091117;27;20786;-82
2024/01/03 13:51:10;;;;;;;16.15;1.65;;;;;;;;;;5090790;27;20074;-81
2024/01/03 13:53:36;;;;;;;18.05;1.25;;;;;;;;;;5099161;27;20483;-83
2024/01/03 13:56:04;;;;;;;11.38;0.98;;;;;;;;;;5093669;27;20043;-83
2024/01/03 13:58:30;;;;;;;13.70;1.60;;;;;;;;;;5101216;27;20125;-82
2024/01/03 14:00:56;;;;;;;8.38;0.90;;;;;;;;;;5107398;27;20809;-81
2024/01/03 14:03:23;;;;;;;15.18;2.47;;;;;;;;;;5090035;27;20043;-81
2024/01/03 14:05:49;;;;;;;9.68;0.70;;;;;;;;;;5100123;27;20151;-83
2024/01/03 14:08:15;;;;;;;11.98;1.33;;;;;;;;;;5090015;27;20054;-82
2024/01/03 14:10:41;;;;;;;12.82;0.93;;;;;;;;;;5103274;27;20458;-82